createdAt,value
2022-12-03T00:00:36.420Z,21.10
2022-12-03T00:03:55.356Z,21.05
2022-12-03T00:10:01.129Z,22.23
2022-12-03T00:13:03.940Z,21.25
2022-12-03T00:16:06.974Z,21.33
2022-12-03T00:19:11.166Z,20.73
2022-12-03T00:22:13.907Z,21.90
2022-12-03T00:25:17.819Z,21.35
2022-12-03T00:28:20.799Z,22.13
2022-12-03T00:31:24.510Z,24.23
2022-12-03T00:34:27.247Z,23.27
2022-12-03T00:37:30.171Z,22.80
2022-12-03T00:40:32.969Z,24.37
2022-12-03T00:43:35.760Z,22.48
2022-12-03T00:46:38.596Z,21.85
2022-12-03T00:52:44.859Z,23.73
2022-12-03T00:55:47.593Z,22.10
2022-12-03T00:58:50.752Z,25.27
2022-12-03T01:01:53.788Z,24.20
2022-12-03T01:04:56.981Z,24.10
2022-12-03T01:08:00.183Z,25.23
2022-12-03T01:11:03.208Z,24.20
2022-12-03T01:14:11.907Z,24.63
2022-12-03T01:17:14.782Z,24.67
2022-12-03T01:20:17.587Z,23.90
2022-12-03T01:23:20.423Z,26.30
2022-12-03T01:26:23.425Z,24.48
2022-12-03T01:29:26.312Z,25.30
2022-12-03T01:32:29.083Z,23.08
2022-12-03T01:35:31.865Z,25.62
2022-12-03T01:38:34.713Z,25.55
2022-12-03T01:41:38.202Z,25.80
2022-12-03T01:47:43.746Z,23.17
2022-12-03T01:50:46.597Z,24.08
2022-12-03T01:53:50.224Z,24.12
2022-12-03T01:56:56.177Z,23.27
2022-12-03T02:00:00.390Z,25.00
2022-12-03T02:03:11.006Z,23.10
2022-12-03T02:06:21.255Z,24.35
2022-12-03T02:09:24.012Z,24.77
2022-12-03T02:12:40.946Z,23.65
2022-12-03T02:15:43.905Z,21.83
2022-12-03T02:18:47.013Z,23.30
2022-12-03T02:21:49.674Z,23.77
2022-12-03T02:24:59.173Z,23.42
2022-12-03T02:28:03.615Z,22.95
2022-12-03T02:31:06.616Z,24.92
2022-12-03T02:34:10.996Z,24.67
2022-12-03T02:37:30.756Z,24.20
2022-12-03T02:40:34.432Z,23.40
2022-12-03T02:43:39.991Z,22.90
2022-12-03T02:46:43.563Z,23.35
2022-12-03T02:49:46.482Z,24.70
2022-12-03T02:52:50.327Z,22.33
2022-12-03T02:55:56.171Z,22.45
2022-12-03T02:59:03.167Z,23.83
2022-12-03T03:02:06.306Z,22.27
2022-12-03T03:05:11.843Z,22.37
2022-12-03T03:08:14.678Z,21.37
2022-12-03T03:11:18.666Z,23.27
2022-12-03T03:14:21.428Z,23.42
2022-12-03T03:17:24.262Z,23.30
2022-12-03T03:20:27.001Z,22.27
2022-12-03T03:23:29.928Z,24.90
2022-12-03T03:26:32.723Z,20.98
2022-12-03T03:29:36.019Z,22.00
2022-12-03T03:32:40.153Z,24.08
2022-12-03T03:35:45.222Z,23.77
2022-12-03T03:38:48.578Z,24.08
2022-12-03T03:41:51.502Z,22.50
2022-12-03T03:44:55.646Z,23.52
2022-12-03T03:48:00.128Z,24.37
2022-12-03T03:51:08.842Z,24.48
2022-12-03T03:54:12.249Z,22.15
2022-12-03T03:57:15.120Z,24.33
2022-12-03T04:00:18.251Z,23.85
2022-12-03T04:03:20.989Z,24.80
2022-12-03T04:06:23.777Z,23.00
2022-12-03T04:09:26.490Z,25.00
2022-12-03T04:12:48.130Z,23.25
2022-12-03T04:15:50.866Z,24.90
2022-12-03T04:18:53.671Z,25.55
2022-12-03T04:22:15.024Z,24.25
2022-12-03T04:25:36.729Z,23.35
2022-12-03T04:28:51.521Z,25.15
2022-12-03T04:32:12.875Z,24.35
2022-12-03T04:35:34.541Z,24.37
2022-12-03T04:38:37.317Z,25.40
2022-12-03T04:41:40.283Z,25.80
2022-12-03T04:44:43.234Z,26.23
2022-12-03T04:47:46.127Z,23.65
2022-12-03T04:50:48.886Z,26.42
2022-12-03T04:53:51.714Z,24.17
2022-12-03T04:56:54.575Z,24.75
2022-12-03T04:59:57.302Z,27.98
2022-12-03T05:03:00.637Z,26.98
2022-12-03T05:06:04.464Z,26.52
2022-12-03T05:09:07.203Z,25.48
2022-12-03T05:12:09.953Z,27.52
2022-12-03T05:15:12.691Z,25.25
2022-12-03T05:18:15.426Z,25.20
2022-12-03T05:21:18.197Z,26.42
2022-12-03T05:24:20.988Z,23.87
2022-12-03T05:27:24.386Z,26.20
2022-12-03T05:30:27.329Z,25.15
2022-12-03T05:33:30.131Z,25.60
2022-12-03T05:36:33.004Z,23.83
2022-12-03T05:39:35.830Z,25.60
2022-12-03T05:42:54.236Z,27.73
2022-12-03T05:45:57.033Z,24.77
2022-12-03T05:48:59.821Z,22.02
2022-12-03T05:52:02.643Z,23.62
2022-12-03T05:55:06.403Z,24.75
2022-12-03T05:58:09.248Z,24.92
2022-12-03T06:01:12.799Z,24.73
2022-12-03T06:04:16.268Z,24.92
2022-12-03T06:07:18.841Z,24.75
2022-12-03T06:10:24.108Z,25.52
2022-12-03T06:13:26.526Z,25.50
2022-12-03T06:16:29.923Z,24.67
2022-12-03T06:19:33.686Z,26.42
2022-12-03T06:22:36.726Z,25.95
2022-12-03T06:25:39.205Z,23.35
2022-12-03T06:28:47.608Z,24.95
2022-12-03T06:31:50.139Z,25.42
2022-12-03T06:34:53.565Z,25.35
2022-12-03T06:37:56.125Z,25.60
2022-12-03T06:40:59.236Z,25.48
2022-12-03T06:44:01.706Z,25.13
2022-12-03T06:47:04.728Z,26.77
2022-12-03T06:50:09.318Z,25.27
2022-12-03T06:53:12.345Z,25.52
2022-12-03T06:56:16.900Z,27.52
2022-12-03T06:59:23.232Z,29.05
2022-12-03T07:02:25.773Z,27.87
2022-12-03T07:08:31.517Z,24.10
2022-12-03T07:11:40.550Z,25.25
2022-12-03T07:14:43.229Z,25.83
2022-12-03T07:17:46.269Z,26.12
2022-12-03T07:20:50.954Z,26.37
2022-12-03T07:23:55.902Z,26.92
2022-12-03T07:26:58.553Z,28.03
2022-12-03T07:30:01.706Z,26.40
2022-12-03T07:33:04.221Z,27.13
2022-12-03T07:36:09.555Z,27.33
2022-12-03T07:39:12.940Z,29.25
2022-12-03T07:42:15.907Z,28.38
2022-12-03T07:45:18.366Z,27.67
2022-12-03T07:48:21.390Z,27.35
2022-12-03T07:51:27.508Z,29.00
2022-12-03T07:54:34.902Z,27.48
2022-12-03T07:57:37.722Z,28.05
2022-12-03T08:00:40.823Z,28.05
2022-12-03T08:03:43.704Z,26.55
2022-12-03T08:06:46.795Z,26.15
2022-12-03T08:09:50.391Z,26.95
2022-12-03T08:12:53.874Z,28.70
2022-12-03T08:16:00.874Z,28.85
2022-12-03T08:19:09.335Z,28.15
2022-12-03T08:22:15.809Z,30.37
2022-12-03T08:25:21.561Z,29.85
2022-12-03T08:28:26.746Z,30.15
2022-12-03T08:31:33.737Z,30.37
2022-12-03T08:34:43.197Z,33.85
2022-12-03T08:37:45.978Z,33.38
2022-12-03T08:40:51.225Z,30.27
2022-12-03T08:43:53.975Z,32.70
2022-12-03T08:47:09.014Z,29.15
2022-12-03T08:50:32.903Z,34.40
2022-12-03T08:59:45.455Z,26.23
2022-12-03T09:02:54.518Z,26.25
2022-12-03T09:05:57.345Z,27.62
2022-12-03T09:09:05.151Z,26.62
2022-12-03T09:12:09.537Z,26.55
2022-12-03T09:15:12.298Z,30.80
2022-12-03T09:18:15.221Z,29.30
2022-12-03T09:21:18.033Z,30.40
2022-12-03T09:24:21.418Z,28.77
2022-12-03T09:27:24.274Z,27.67
2022-12-03T09:30:27.057Z,28.12
2022-12-03T09:33:32.396Z,27.05
2022-12-03T09:36:35.215Z,26.75
2022-12-03T09:39:37.997Z,28.45
2022-12-03T09:42:41.424Z,28.75
2022-12-03T09:45:49.425Z,28.17
2022-12-03T09:48:52.486Z,28.15
2022-12-03T09:51:57.476Z,27.98
2022-12-03T09:55:14.002Z,27.85
2022-12-03T09:58:19.114Z,28.52
2022-12-03T10:01:22.435Z,28.40
2022-12-03T10:04:29.885Z,27.92
2022-12-03T10:07:32.512Z,27.30
2022-12-03T10:10:37.630Z,26.85
2022-12-03T10:13:40.787Z,27.15
2022-12-03T10:16:44.039Z,27.02
2022-12-03T10:19:46.919Z,25.65
2022-12-03T10:22:50.218Z,24.40
2022-12-03T10:26:10.745Z,24.35
2022-12-03T10:29:17.054Z,22.60
2022-12-03T10:32:38.233Z,24.25
2022-12-03T10:35:41.464Z,23.27
2022-12-03T10:38:44.723Z,23.67
2022-12-03T10:41:49.148Z,23.55
2022-12-03T10:45:18.379Z,22.48
2022-12-03T10:48:27.564Z,21.50
2022-12-03T10:51:30.561Z,21.05
2022-12-03T10:54:35.871Z,21.40
2022-12-03T10:57:43.720Z,22.00
2022-12-03T11:00:50.800Z,21.50
2022-12-03T11:03:56.632Z,19.70
2022-12-03T11:07:02.503Z,19.80
2022-12-03T11:10:12.272Z,20.20
2022-12-03T11:13:33.503Z,20.67
2022-12-03T11:16:41.874Z,19.73
2022-12-03T11:19:48.791Z,18.48
2022-12-03T11:22:52.050Z,18.60
2022-12-03T11:25:55.042Z,19.62
2022-12-03T11:28:59.224Z,19.25
2022-12-03T11:32:02.342Z,19.05
2022-12-03T11:35:12.688Z,18.75
2022-12-03T11:38:37.848Z,19.20
2022-12-03T11:41:40.393Z,18.85
2022-12-03T11:44:43.594Z,18.50
2022-12-03T11:47:58.074Z,17.98
2022-12-03T11:51:01.312Z,16.70
2022-12-03T11:54:03.782Z,17.15
2022-12-03T11:57:26.820Z,16.70
2022-12-03T12:00:30.060Z,17.77
2022-12-03T12:03:45.886Z,17.45
2022-12-03T12:06:53.203Z,15.25
2022-12-03T12:09:57.473Z,16.83
2022-12-03T12:13:00.117Z,16.12
2022-12-03T12:16:06.643Z,16.65
2022-12-03T12:19:41.402Z,17.65
2022-12-03T12:22:44.758Z,16.33
2022-12-03T12:25:52.442Z,17.02
2022-12-03T12:28:57.094Z,17.23
2022-12-03T12:32:23.150Z,16.58
2022-12-03T12:35:30.821Z,15.52
2022-12-03T12:38:33.479Z,17.12
2022-12-03T12:41:36.462Z,17.40
2022-12-03T12:44:38.933Z,18.27
2022-12-03T12:51:06.183Z,18.02
2022-12-03T12:54:15.278Z,16.90
2022-12-03T12:57:22.383Z,17.50
2022-12-03T13:00:25.463Z,17.95
2022-12-03T13:03:33.668Z,18.70
2022-12-03T13:06:39.602Z,18.65
2022-12-03T13:09:44.551Z,19.45
2022-12-03T13:12:47.794Z,17.98
2022-12-03T13:16:07.136Z,19.05
2022-12-03T13:19:39.598Z,19.30
2022-12-03T13:22:48.807Z,18.48
2022-12-03T13:26:02.311Z,18.67
2022-12-03T13:29:15.830Z,19.62
2022-12-03T13:32:19.783Z,18.87
2022-12-03T13:38:28.065Z,19.02
2022-12-03T13:41:49.298Z,20.23
2022-12-03T13:44:53.628Z,20.55
2022-12-03T13:48:01.237Z,19.08
2022-12-03T13:51:35.262Z,19.87
2022-12-03T13:54:39.313Z,20.05
2022-12-03T13:57:42.464Z,18.55
2022-12-03T14:00:45.997Z,18.42
2022-12-03T14:03:50.730Z,19.10
2022-12-03T14:06:53.655Z,19.50
2022-12-03T14:09:57.070Z,19.37
2022-12-03T14:12:59.852Z,18.95
2022-12-03T14:16:02.921Z,18.60
2022-12-03T14:19:06.261Z,19.50
2022-12-03T14:22:10.049Z,19.65
2022-12-03T14:25:12.611Z,19.33
2022-12-03T14:28:15.689Z,19.08
2022-12-03T14:31:18.260Z,17.40
2022-12-03T14:34:21.320Z,19.73
2022-12-03T14:37:23.882Z,18.80
2022-12-03T14:40:27.235Z,19.85
2022-12-03T14:43:29.888Z,18.52
2022-12-03T14:46:33.357Z,18.50
2022-12-03T14:49:36.326Z,17.52
2022-12-03T14:52:39.351Z,18.87
2022-12-03T14:55:41.928Z,18.53
2022-12-03T14:58:44.969Z,17.98
2022-12-03T15:01:47.450Z,17.90
2022-12-03T15:04:50.564Z,17.62
2022-12-03T15:07:53.154Z,18.50
2022-12-03T15:10:56.498Z,17.42
2022-12-03T15:13:59.135Z,18.35
2022-12-03T15:17:02.175Z,18.92
2022-12-03T15:20:05.259Z,17.57
2022-12-03T15:23:13.892Z,20.55
2022-12-03T15:26:17.026Z,21.05
2022-12-03T15:29:20.804Z,18.60
2022-12-03T15:32:23.287Z,20.35
2022-12-03T15:35:26.349Z,21.42
2022-12-03T15:38:28.866Z,18.90
2022-12-03T15:41:31.970Z,18.30
2022-12-03T15:44:34.655Z,18.67
2022-12-03T15:47:39.045Z,19.02
2022-12-03T15:50:41.571Z,21.67
2022-12-03T15:53:44.698Z,20.08
2022-12-03T15:56:47.194Z,19.17
2022-12-03T15:59:51.584Z,19.52
2022-12-03T16:02:54.492Z,19.42
2022-12-03T16:05:57.630Z,21.10
2022-12-03T16:09:00.128Z,21.30
2022-12-03T16:12:03.357Z,19.55
2022-12-03T16:15:06.324Z,20.73
2022-12-03T16:18:09.568Z,21.05
2022-12-03T16:21:12.046Z,21.40
2022-12-03T16:24:15.391Z,32.00
2022-12-03T16:27:21.587Z,39.37
2022-12-03T16:30:27.335Z,24.23
2022-12-03T16:33:29.930Z,21.47
2022-12-03T16:36:33.119Z,21.00
2022-12-03T16:39:35.562Z,21.07
2022-12-03T16:42:38.637Z,21.05
2022-12-03T16:46:13.459Z,20.58
2022-12-03T16:49:16.605Z,21.20
2022-12-03T16:52:19.113Z,22.58
2022-12-03T16:55:22.312Z,21.67
2022-12-03T16:58:24.771Z,21.75
2022-12-03T17:01:27.970Z,21.95
2022-12-03T17:04:30.708Z,22.93
2022-12-03T17:07:33.868Z,23.27
2022-12-03T17:10:36.452Z,23.70
2022-12-03T17:13:39.687Z,22.83
2022-12-03T17:16:42.256Z,21.95
2022-12-03T17:19:45.446Z,23.12
2022-12-03T17:22:47.949Z,36.43
2022-12-03T17:25:51.190Z,25.60
2022-12-03T17:28:53.648Z,24.47
2022-12-03T17:31:56.983Z,22.40
2022-12-03T17:34:59.714Z,22.50
2022-12-03T17:38:02.852Z,22.62
2022-12-03T17:41:05.554Z,24.07
2022-12-03T17:44:10.837Z,25.17
2022-12-03T17:47:15.534Z,24.98
2022-12-03T17:50:18.666Z,24.50
2022-12-03T17:53:21.404Z,25.62
2022-12-03T17:56:24.430Z,25.60
2022-12-03T17:59:26.981Z,25.67
2022-12-03T18:02:30.285Z,30.77
2022-12-03T18:05:33.111Z,25.23
2022-12-03T18:08:35.881Z,28.80
2022-12-03T18:11:38.943Z,26.95
2022-12-03T18:14:43.293Z,26.50
2022-12-03T18:17:46.145Z,27.85
2022-12-03T18:20:49.026Z,28.70
2022-12-03T18:23:52.582Z,30.12
2022-12-03T18:30:00.120Z,26.92
2022-12-03T18:33:02.937Z,27.65
2022-12-03T18:36:09.437Z,29.25
2022-12-03T18:39:26.613Z,28.15
2022-12-03T18:42:29.443Z,27.90
2022-12-03T18:45:32.300Z,30.20
2022-12-03T18:48:35.066Z,29.37
2022-12-03T18:51:37.985Z,30.50
2022-12-03T18:54:40.853Z,29.55
2022-12-03T18:57:43.791Z,28.30
2022-12-03T19:00:46.745Z,28.38
2022-12-03T19:03:53.280Z,29.25
2022-12-03T19:06:58.227Z,28.38
2022-12-03T19:10:01.035Z,28.80
2022-12-03T19:13:03.967Z,27.35
2022-12-03T19:16:08.754Z,27.70
2022-12-03T19:19:12.022Z,26.05
2022-12-03T19:22:14.799Z,27.98
2022-12-03T19:25:18.420Z,28.60
2022-12-03T19:28:21.390Z,27.50
2022-12-03T19:31:26.297Z,29.27
2022-12-03T19:34:29.326Z,26.83
2022-12-03T19:37:33.708Z,26.00
2022-12-03T19:40:36.573Z,28.95
2022-12-03T19:43:39.897Z,28.55
2022-12-03T19:46:43.489Z,27.87
2022-12-03T19:49:46.260Z,28.17
2022-12-03T19:52:50.018Z,28.62
2022-12-03T19:55:53.273Z,33.08
2022-12-03T19:58:56.772Z,34.80
2022-12-03T20:05:02.625Z,29.20
2022-12-03T20:08:06.615Z,27.30
2022-12-03T20:11:12.695Z,26.52
2022-12-03T20:14:16.186Z,27.70
2022-12-03T20:17:19.243Z,27.42
2022-12-03T20:20:22.003Z,26.80
2022-12-03T20:23:25.386Z,26.62
2022-12-03T20:26:28.799Z,25.92
2022-12-03T20:29:31.923Z,26.98
2022-12-03T20:32:40.723Z,25.23
2022-12-03T20:38:55.724Z,26.77
2022-12-03T20:41:58.902Z,26.23
2022-12-03T20:45:03.183Z,26.83
2022-12-03T20:48:06.867Z,26.17
2022-12-03T20:51:11.688Z,26.83
2022-12-03T20:54:15.021Z,26.15
2022-12-03T20:57:17.645Z,27.10
2022-12-03T21:00:24.010Z,26.60
2022-12-03T21:03:26.542Z,26.08
2022-12-03T21:06:34.056Z,27.13
2022-12-03T21:09:36.951Z,30.92
2022-12-03T21:12:41.915Z,28.50
2022-12-03T21:15:48.346Z,28.77
2022-12-03T21:18:52.683Z,27.70
2022-12-03T21:21:55.307Z,28.45
2022-12-03T21:24:59.438Z,28.55
2022-12-03T21:28:06.674Z,30.20
2022-12-03T21:31:13.846Z,29.50
2022-12-03T21:34:16.579Z,31.65
2022-12-03T21:37:19.750Z,29.67
2022-12-03T21:40:22.532Z,29.20
2022-12-03T21:43:25.767Z,28.92
2022-12-03T21:47:11.763Z,28.70
2022-12-03T21:49:51.816Z,31.10
2022-12-03T21:52:54.997Z,29.73
2022-12-03T21:55:58.879Z,28.70
2022-12-03T21:59:01.385Z,32.15
2022-12-03T22:02:04.631Z,31.52
2022-12-03T22:05:08.595Z,30.17
2022-12-03T22:08:12.758Z,32.00
2022-12-03T22:11:19.399Z,30.77
2022-12-03T22:14:22.288Z,32.08
2022-12-03T22:17:25.672Z,30.35
2022-12-03T22:23:33.230Z,30.73
2022-12-03T22:26:36.026Z,31.30
2022-12-03T22:29:38.967Z,31.10
2022-12-03T22:32:41.733Z,31.23
2022-12-03T22:35:53.679Z,32.50
2022-12-03T22:38:56.728Z,32.67
2022-12-03T22:41:59.553Z,31.23
2022-12-03T22:45:02.354Z,31.52
2022-12-03T22:48:05.398Z,31.20
2022-12-03T22:51:24.269Z,30.42
2022-12-03T22:54:27.447Z,30.17
2022-12-03T22:57:31.386Z,31.12
2022-12-03T23:00:37.259Z,30.70
2022-12-03T23:03:40.043Z,31.58
2022-12-03T23:06:43.593Z,30.98
2022-12-03T23:12:48.985Z,30.02
2022-12-03T23:15:52.396Z,30.12
2022-12-03T23:21:58.340Z,26.00
2022-12-03T23:25:01.111Z,28.70
2022-12-03T23:28:04.754Z,27.17
2022-12-03T23:31:17.147Z,30.12
2022-12-03T23:34:20.038Z,30.60
2022-12-03T23:37:23.700Z,27.80
2022-12-03T23:40:26.656Z,27.80
2022-12-03T23:43:29.419Z,29.42
2022-12-03T23:46:32.238Z,28.30
2022-12-03T23:49:35.201Z,28.55
2022-12-03T23:52:38.158Z,28.95
2022-12-03T23:55:41.471Z,28.42
2022-12-03T23:58:45.150Z,27.35
